Time;durP1;ratioP1;P1;durP2;ratioP2;P2;SDS_P1;SDS_P2;PMS_P1;PMS_P2;Temp;Humidity;BMP_temperature;BMP_pressure;BME280_temperature;BME280_humidity;BME280_pressure;Samples;Min_cycle;Max_cycle;Signal;HPM_P1;HPM_P2
2022/08/29 00:00:36;;;;;;;3.25;2.65;;;;;;;18.73;99.51;96613.48;1707692;83;20920;-83
2022/08/29 00:03:05;;;;;;;3.30;2.20;;;;;;;18.71;99.55;96608.45;1700123;83;21011;-83
2022/08/29 00:05:34;;;;;;;3.35;1.90;;;;;;;18.72;99.49;96606.62;1717294;83;20992;-82
2022/08/29 00:08:00;;;;;;;2.92;1.80;;;;;;;18.72;99.53;96612.69;1715602;82;21300;-83
2022/08/29 00:10:27;;;;;;;2.75;2.05;;;;;;;18.73;99.58;96612.97;1697364;82;21030;-82
2022/08/29 00:12:53;;;;;;;2.47;2.20;;;;;;;18.70;99.53;96628.39;1705501;82;20940;-83
2022/08/29 00:15:18;;;;;;;3.20;2.45;;;;;;;18.68;99.64;96628.62;1708945;82;21030;-83
2022/08/29 00:17:44;;;;;;;3.10;2.80;;;;;;;18.66;99.69;96626.73;1696217;83;21440;-83
2022/08/29 00:20:14;;;;;;;4.42;3.85;;;;;;;18.67;99.70;96622.27;1717361;83;20971;-83
2022/08/29 00:22:40;;;;;;;10.48;9.45;;;;;;;18.66;99.59;96619.34;1721637;82;20987;-82
2022/08/29 00:25:06;;;;;;;13.60;10.20;;;;;;;18.60;99.22;96619.72;1717922;82;20943;-82
2022/08/29 00:27:32;;;;;;;12.60;11.35;;;;;;;18.59;99.50;96616.80;1723677;82;21003;-82
2022/08/29 00:29:58;;;;;;;11.43;10.18;;;;;;;18.55;99.31;96630.13;1725914;82;21003;-82
2022/08/29 00:32:24;;;;;;;15.03;12.65;;;;;;;18.49;99.32;96620.48;1725874;82;21363;-82
2022/08/29 00:34:49;;;;;;;17.55;13.65;;;;;;;18.43;99.59;96618.25;1724674;82;21007;-84
2022/08/29 00:37:15;;;;;;;18.45;15.15;;;;;;;18.43;100.00;96620.09;1697793;82;20991;-84
2022/08/29 00:39:41;;;;;;;19.10;14.95;;;;;;;18.41;99.99;96619.00;1712736;81;21279;-84
2022/08/29 00:42:07;;;;;;;19.80;16.30;;;;;;;18.35;99.89;96626.97;1684542;82;21022;-84
2022/08/29 00:44:34;;;;;;;20.32;16.27;;;;;;;18.36;100.00;96617.53;1710823;82;21027;-84
2022/08/29 00:47:06;;;;;;;20.72;17.12;;;;;;;18.41;100.00;96618.20;1724874;81;21078;-83
2022/08/29 00:49:42;;;;;;;22.10;18.23;;;;;;;18.42;100.00;96621.91;1703397;82;21022;-83
2022/08/29 00:52:34;;;;;;;19.70;17.12;;;;;;;18.46;100.00;96615.69;1706069;82;20986;-83
2022/08/29 00:55:01;;;;;;;19.90;15.80;;;;;;;18.46;100.00;96611.22;1718371;82;21118;-84
2022/08/29 00:57:30;;;;;;;21.17;16.73;;;;;;;18.48;100.00;96617.57;1709667;81;21062;-84
2022/08/29 00:59:56;;;;;;;19.67;16.27;;;;;;;18.47;100.00;96615.97;1723113;82;21391;-84
2022/08/29 01:02:21;;;;;;;21.15;16.73;;;;;;;18.48;100.00;96617.57;1724933;82;20963;-84
2022/08/29 01:04:47;;;;;;;21.60;17.12;;;;;;;18.47;100.00;96618.59;1709001;81;20999;-83
2022/08/29 01:07:13;;;;;;;25.08;17.05;;;;;;;18.44;100.00;96617.23;1725156;82;21063;-84
2022/08/29 01:09:40;;;;;;;25.92;16.60;;;;;;;18.44;100.00;96625.12;1714547;82;21279;-84
2022/08/29 01:12:15;;;;;;;22.42;17.90;;;;;;;18.42;100.00;96625.06;1718466;81;20988;-84
2022/08/29 01:14:57;;;;;;;21.87;18.87;;;;;;;18.36;100.00;96625.42;1719069;81;20971;-84
2022/08/29 01:17:35;;;;;;;;;;;;;;;18.33;100.00;96627.70;1699032;83;21055;-84
2022/08/29 01:20:30;;;;;;;21.50;18.55;;;;;;;18.34;100.00;96628.00;1726460;81;20200;-84
2022/08/29 01:23:13;;;;;;;23.35;19.10;;;;;;;18.28;100.00;96627.88;1698365;81;21032;-84
2022/08/29 01:25:42;;;;;;;21.77;17.75;;;;;;;18.28;100.00;96629.70;1715393;82;20983;-84
2022/08/29 01:28:19;;;;;;;21.95;18.35;;;;;;;18.23;100.00;96629.06;1725560;81;21071;-84
2022/08/29 01:31:08;;;;;;;22.35;17.98;;;;;;;18.23;100.00;96625.13;1721240;81;20968;-82
2022/08/29 01:33:56;;;;;;;23.70;19.32;;;;;;;18.23;100.00;96630.90;1690993;83;20943;-82
2022/08/29 01:36:50;;;;;;;23.98;19.35;;;;;;;18.20;100.00;96628.17;1667587;82;21032;-82
2022/08/29 01:39:17;;;;;;;21.57;19.27;;;;;;;18.14;100.00;96630.91;1752669;80;20979;-82
2022/08/29 01:41:43;;;;;;;23.45;18.62;;;;;;;18.08;100.00;96629.18;1756786;80;21071;-82
2022/08/29 01:44:18;;;;;;;21.95;19.42;;;;;;;18.00;100.00;96637.65;1758543;80;20977;-82
2022/08/29 01:46:43;;;;;;;22.07;17.80;;;;;;;17.96;100.00;96633.87;1765170;79;21000;-83
2022/08/29 01:49:10;;;;;;;21.68;19.05;;;;;;;17.95;100.00;96636.20;1764738;80;21012;-83
2022/08/29 01:51:36;;;;;;;18.95;16.97;;;;;;;17.94;100.00;96640.37;1753804;79;21074;-82
2022/08/29 01:54:06;;;;;;;20.17;17.98;;;;;;;17.93;100.00;96640.89;1761947;80;21048;-82
2022/08/29 01:56:34;;;;;;;23.87;19.30;;;;;;;17.90;100.00;96640.02;1764405;79;20972;-82
2022/08/29 01:59:03;;;;;;;21.00;18.77;;;;;;;17.90;100.00;96638.70;1755802;79;20983;-83
2022/08/29 02:01:32;;;;;;;21.57;19.25;;;;;;;17.91;100.00;96643.45;1766190;79;21371;-82
2022/08/29 02:03:58;;;;;;;22.25;18.48;;;;;;;17.91;100.00;96640.31;1766408;79;21398;-82
2022/08/29 02:06:25;;;;;;;22.90;17.95;;;;;;;17.90;100.00;96636.59;1762690;80;21009;-82
2022/08/29 02:08:52;;;;;;;20.43;17.60;;;;;;;17.91;100.00;96644.77;1767531;79;21391;-82
2022/08/29 02:11:18;;;;;;;20.52;17.02;;;;;;;17.92;100.00;96643.23;1775120;80;21028;-83
2022/08/29 02:13:47;;;;;;;17.52;15.18;;;;;;;17.95;100.00;96641.47;1764337;80;20967;-84
2022/08/29 02:16:13;;;;;;;17.65;14.87;;;;;;;17.97;100.00;96646.50;1750210;80;20999;-84
2022/08/29 02:18:41;;;;;;;16.48;14.75;;;;;;;17.96;100.00;96648.84;1767550;79;21375;-84
2022/08/29 02:21:06;;;;;;;17.15;14.03;;;;;;;17.99;100.00;96646.56;1715777;80;21040;-83
2022/08/29 02:23:40;;;;;;;14.63;13.13;;;;;;;18.02;100.00;96646.63;1758085;80;20992;-84
2022/08/29 02:26:06;;;;;;;19.42;13.13;;;;;;;18.05;100.00;96648.81;1761262;79;21099;-84
2022/08/29 02:28:34;;;;;;;14.38;12.85;;;;;;;18.08;100.00;96656.79;1761570;80;20963;-84
2022/08/29 02:31:00;;;;;;;13.35;11.57;;;;;;;18.09;100.00;96650.50;1763093;79;21020;-84
2022/08/29 02:33:26;;;;;;;15.15;12.37;;;;;;;18.11;100.00;96654.52;1765525;80;21441;-83
2022/08/29 02:35:52;;;;;;;15.13;11.88;;;;;;;18.12;100.00;96653.48;1750414;80;20976;-84
2022/08/29 02:38:18;;;;;;;12.43;10.98;;;;;;;18.06;100.00;96655.70;1760005;80;20953;-83
2022/08/29 02:40:44;;;;;;;16.37;11.22;;;;;;;18.06;100.00;96662.75;1753241;80;21020;-84
2022/08/29 02:43:09;;;;;;;15.65;10.28;;;;;;;18.04;100.00;96658.23;1767250;79;20983;-83
2022/08/29 02:45:38;;;;;;;14.15;11.30;;;;;;;18.05;100.00;96656.69;1767572;80;21027;-82
2022/08/29 02:48:04;;;;;;;16.10;10.50;;;;;;;18.08;100.00;96653.64;1768602;80;21092;-82
2022/08/29 02:50:30;;;;;;;12.75;10.03;;;;;;;18.10;100.00;96660.80;1767640;79;20979;-83
2022/08/29 02:52:55;;;;;;;12.65;10.32;;;;;;;18.13;99.85;96660.86;1768433;80;21011;-82
2022/08/29 02:55:22;;;;;;;12.95;9.98;;;;;;;18.13;99.79;96657.72;1764828;79;20979;-83
2022/08/29 02:57:48;;;;;;;11.08;9.93;;;;;;;18.17;99.97;96655.44;1760629;80;20951;-83
2022/08/29 03:00:20;;;;;;;14.30;9.50;;;;;;;18.21;99.88;96653.96;1757489;80;20984;-82
2022/08/29 03:02:46;;;;;;;12.33;9.18;;;;;;;18.24;99.84;96656.17;1765143;79;21465;-82
2022/08/29 03:05:14;;;;;;;11.97;9.73;;;;;;;18.25;99.60;96657.27;1739534;79;21054;-82
2022/08/29 03:07:40;;;;;;;11.10;9.73;;;;;;;18.28;99.42;96654.69;1768775;79;20987;-82
2022/08/29 03:10:10;;;;;;;11.25;9.03;;;;;;;18.22;98.52;96659.03;1756018;80;20980;-82
2022/08/29 03:12:35;;;;;;;11.35;9.80;;;;;;;18.18;98.71;96657.84;1761276;79;21064;-82
2022/08/29 03:15:03;;;;;;;13.10;9.80;;;;;;;18.21;98.74;96660.02;1763900;80;21055;-82
2022/08/29 03:17:29;;;;;;;11.22;9.30;;;;;;;18.22;98.47;96655.56;1752064;79;21039;-82
2022/08/29 03:19:54;;;;;;;11.40;9.70;;;;;;;18.15;98.48;96662.23;1769130;80;20956;-82
2022/08/29 03:22:20;;;;;;;12.90;9.58;;;;;;;18.13;98.72;96658.23;1738770;79;21489;-83
2022/08/29 03:24:46;;;;;;;13.20;9.40;;;;;;;18.13;98.63;96662.17;1768754;79;20982;-82
2022/08/29 03:27:12;;;;;;;10.18;8.73;;;;;;;18.15;98.59;96658.80;1762726;80;20984;-82
2022/08/29 03:29:38;;;;;;;10.90;8.03;;;;;;;18.14;98.45;96658.01;1766623;80;21294;-82
2022/08/29 03:32:04;;;;;;;12.43;8.58;;;;;;;18.14;98.48;96661.15;1769970;80;21018;-82
2022/08/29 03:34:30;;;;;;;12.93;8.85;;;;;;;18.16;98.62;96666.47;1779211;79;20972;-82
2022/08/29 03:36:56;;;;;;;12.65;8.43;;;;;;;18.17;98.43;96663.33;1767802;80;21019;-83
2022/08/29 03:39:22;;;;;;;10.08;8.50;;;;;;;18.21;98.31;96670.55;1766761;80;20937;-82
2022/08/29 03:41:47;;;;;;;13.13;9.20;;;;;;;18.27;98.39;96664.92;1756616;80;20995;-82
2022/08/29 03:44:13;;;;;;;11.33;8.93;;;;;;;18.28;98.19;96673.10;1765363;79;20979;-84
2022/08/29 03:46:39;;;;;;;10.20;8.20;;;;;;;18.28;98.08;96673.91;1759490;80;21046;-84
2022/08/29 03:49:06;;;;;;;11.08;8.30;;;;;;;18.27;97.92;96675.45;1758046;80;21007;-84
2022/08/29 03:51:36;;;;;;;12.53;8.15;;;;;;;18.21;97.82;96685.01;1680859;83;20987;-84
2022/08/29 03:54:03;;;;;;;11.63;8.35;;;;;;;18.10;97.44;96681.84;1717787;82;21334;-84
2022/08/29 03:56:29;;;;;;;9.10;6.90;;;;;;;18.02;97.81;96686.58;1686174;83;20983;-84
2022/08/29 03:58:55;;;;;;;10.68;7.28;;;;;;;17.98;97.80;96687.54;1695855;83;20976;-84
2022/08/29 04:01:24;;;;;;;10.93;7.30;;;;;;;17.97;98.06;96689.88;1718304;82;21379;-84
2022/08/29 04:03:50;;;;;;;10.50;6.62;;;;;;;17.99;98.10;96693.09;1715020;82;21407;-82
2022/08/29 04:06:15;;;;;;;13.72;8.20;;;;;;;18.00;98.08;96690.23;1723625;82;21096;-82
2022/08/29 04:08:42;;;;;;;10.60;6.72;;;;;;;18.04;98.17;96689.78;1716724;82;21071;-82
2022/08/29 04:11:09;;;;;;;11.00;7.45;;;;;;;18.07;98.13;96693.31;1722378;82;20999;-83
2022/08/29 04:13:35;;;;;;;12.82;8.43;;;;;;;18.06;97.64;96695.63;1722505;82;20957;-82
2022/08/29 04:16:10;;;;;;;9.93;7.05;;;;;;;18.00;97.13;96699.44;1723269;82;21007;-84
2022/08/29 04:18:36;;;;;;;9.08;6.37;;;;;;;17.89;97.04;96701.48;1720022;82;21119;-84
2022/08/29 04:21:03;;;;;;;6.75;5.53;;;;;;;17.82;97.14;96703.91;1710012;82;21454;-84
2022/08/29 04:23:29;;;;;;;9.08;5.65;;;;;;;17.82;97.65;96709.16;1721045;82;21008;-84
2022/08/29 04:25:54;;;;;;;10.63;5.65;;;;;;;17.84;97.38;96714.48;1719791;82;21325;-84
2022/08/29 04:28:20;;;;;;;9.93;6.25;;;;;;;17.83;97.22;96713.39;1718832;82;20988;-84
2022/08/29 04:30:50;;;;;;;8.95;5.75;;;;;;;17.81;97.00;96713.61;1677574;83;22444;-83
2022/08/29 04:33:17;;;;;;;10.23;5.95;;;;;;;17.76;96.42;96719.24;1721065;82;21015;-82
2022/08/29 04:35:43;;;;;;;7.92;5.62;;;;;;;17.71;96.75;96725.13;1719207;82;22012;-82
2022/08/29 04:38:09;;;;;;;10.93;6.17;;;;;;;17.69;96.72;96728.49;1721028;82;20991;-82
2022/08/29 04:40:36;;;;;;;8.45;5.40;;;;;;;17.64;96.58;96734.89;1719528;82;20922;-82
2022/08/29 04:43:01;;;;;;;8.53;5.50;;;;;;;17.59;96.63;96740.00;1722319;82;21004;-83
2022/08/29 04:45:27;;;;;;;8.33;5.50;;;;;;;17.56;96.50;96737.78;1714966;82;20948;-82
2022/08/29 04:47:54;;;;;;;8.05;5.70;;;;;;;17.56;96.80;96729.90;1707582;82;21039;-82
2022/08/29 04:50:22;;;;;;;8.28;5.78;;;;;;;17.51;96.10;96737.64;1722326;82;20988;-83
2022/08/29 04:52:50;;;;;;;8.78;5.97;;;;;;;17.51;96.40;96735.81;1716544;82;20987;-82
2022/08/29 04:55:16;;;;;;;9.20;6.03;;;;;;;17.56;97.01;96728.08;1717458;82;21355;-83
2022/08/29 04:57:42;;;;;;;12.50;6.05;;;;;;;17.60;96.80;96736.35;1717842;82;20980;-83
2022/08/29 05:00:12;;;;;;;10.43;7.00;;;;;;;17.63;97.00;96738.54;1706596;82;21003;-83
2022/08/29 05:02:40;;;;;;;8.83;6.10;;;;;;;17.64;96.93;96746.71;1716521;82;20992;-83
2022/08/29 05:05:07;;;;;;;8.25;6.40;;;;;;;17.66;96.65;96748.09;1720051;83;21035;-82
2022/08/29 05:07:32;;;;;;;8.58;6.70;;;;;;;17.65;96.88;96757.52;1720778;82;21059;-83
2022/08/29 05:10:02;;;;;;;8.63;6.60;;;;;;;17.63;96.73;96766.94;1718350;82;21051;-82
2022/08/29 05:12:29;;;;;;;10.78;7.30;;;;;;;17.61;97.00;96764.23;1714683;82;20967;-83
2022/08/29 05:14:56;;;;;;;9.05;6.20;;;;;;;17.60;96.83;96766.05;1719259;82;21027;-83
2022/08/29 05:17:22;;;;;;;15.78;8.05;;;;;;;17.63;97.11;96769.56;1722535;82;21110;-82
2022/08/29 05:19:48;;;;;;;9.43;6.22;;;;;;;17.65;97.01;96766.71;1711864;82;20906;-82
2022/08/29 05:22:14;;;;;;;8.13;6.55;;;;;;;17.69;97.12;96758.72;1718205;82;20972;-83
2022/08/29 05:24:40;;;;;;;10.53;6.28;;;;;;;17.74;97.20;96766.77;1724101;82;20959;-83
2022/08/29 05:27:09;;;;;;;9.25;6.40;;;;;;;17.68;96.70;96768.42;1722421;82;20986;-82
2022/08/29 05:29:43;;;;;;;7.92;6.33;;;;;;;17.67;96.46;96773.86;1711416;82;21326;-82
2022/08/29 05:32:09;;;;;;;8.20;6.33;;;;;;;17.70;97.13;96777.41;1720619;82;21394;-82
2022/08/29 05:34:36;;;;;;;9.55;6.65;;;;;;;17.70;96.57;96776.09;1721078;82;20987;-83
2022/08/29 05:37:05;;;;;;;8.38;5.92;;;;;;;17.68;96.77;96780.76;1716252;82;21381;-83
2022/08/29 05:39:32;;;;;;;10.43;7.30;;;;;;;17.65;97.21;96785.91;1718534;82;21008;-82
2022/08/29 05:41:58;;;;;;;12.05;7.25;;;;;;;17.70;97.51;96787.91;1723836;82;21088;-82
2022/08/29 05:44:25;;;;;;;11.48;7.45;;;;;;;17.70;97.29;96786.09;1716200;82;21048;-82
2022/08/29 05:46:51;;;;;;;11.70;7.67;;;;;;;17.73;97.33;96785.36;1720828;81;21066;-82
2022/08/29 05:49:17;;;;;;;9.20;7.15;;;;;;;17.70;96.94;96790.54;1730729;81;21071;-82
2022/08/29 05:51:42;;;;;;;10.95;6.72;;;;;;;17.68;96.79;96788.64;1730813;81;21294;-82
2022/08/29 05:54:08;;;;;;;10.35;6.97;;;;;;;17.69;96.85;96790.25;1733003;81;20896;-83
2022/08/29 05:56:34;;;;;;;10.40;6.87;;;;;;;17.68;96.50;96784.70;1729235;81;21338;-82
2022/08/29 05:59:00;;;;;;;9.20;7.17;;;;;;;17.70;96.86;96791.86;1730053;81;21042;-83
2022/08/29 06:01:29;;;;;;;10.68;8.15;;;;;;;17.69;96.73;96788.42;1723185;81;20986;-82
2022/08/29 06:03:55;;;;;;;12.70;8.70;;;;;;;17.73;96.67;96787.98;1731168;81;20972;-83
2022/08/29 06:06:26;;;;;;;12.07;8.73;;;;;;;17.74;96.67;96792.25;1712668;81;21422;-83
2022/08/29 06:08:53;;;;;;;13.00;10.32;;;;;;;17.73;97.01;96788.78;1717479;81;21402;-82
2022/08/29 06:11:22;;;;;;;13.80;10.68;;;;;;;17.70;96.46;96790.03;1716603;81;21048;-82
2022/08/29 06:13:47;;;;;;;14.10;10.78;;;;;;;17.64;96.44;96790.07;1734713;81;21398;-82
2022/08/29 06:16:18;;;;;;;20.00;12.50;;;;;;;17.65;97.24;96792.48;1732487;81;20943;-82
2022/08/29 06:18:44;;;;;;;15.85;11.83;;;;;;;17.66;96.73;96793.28;1723553;81;21007;-83
2022/08/29 06:21:10;;;;;;;17.77;12.73;;;;;;;17.64;97.06;96794.81;1728285;81;21377;-83
2022/08/29 06:23:37;;;;;;;15.58;10.75;;;;;;;17.69;97.47;96802.08;1732991;81;20991;-83
2022/08/29 06:26:03;;;;;;;15.45;11.38;;;;;;;17.70;97.26;96802.36;1739032;81;21051;-83
2022/08/29 06:28:30;;;;;;;15.83;13.00;;;;;;;17.72;97.24;96800.83;1720642;82;21062;-83
2022/08/29 06:31:09;;;;;;;18.27;14.10;;;;;;;17.71;96.50;96806.60;1722305;82;20963;-83
2022/08/29 06:33:35;;;;;;;19.15;13.15;;;;;;;17.69;96.38;96812.59;1703176;82;20940;-83
2022/08/29 06:36:02;;;;;;;16.50;13.05;;;;;;;17.69;96.34;96815.22;1722908;82;21417;-83
2022/08/29 06:38:27;;;;;;;17.70;12.88;;;;;;;17.71;96.74;96822.37;1722607;82;21124;-83
2022/08/29 06:40:53;;;;;;;16.77;12.50;;;;;;;17.74;96.79;96818.02;1709906;82;21007;-82
2022/08/29 06:43:19;;;;;;;19.23;15.58;;;;;;;17.79;97.34;96826.05;1720593;82;21010;-83
2022/08/29 06:45:44;;;;;;;18.85;15.10;;;;;;;17.79;95.96;96828.68;1714318;82;20966;-82
2022/08/29 06:48:10;;;;;;;19.17;14.68;;;;;;;17.75;96.09;96834.08;1712046;82;21068;-83
2022/08/29 06:50:37;;;;;;;18.02;13.70;;;;;;;17.78;96.61;96833.64;1718373;81;21472;-83
2022/08/29 06:53:05;;;;;;;19.15;14.93;;;;;;;17.80;95.99;96839.48;1733408;81;20991;-83
2022/08/29 06:55:31;;;;;;;17.92;13.65;;;;;;;17.88;96.47;96844.45;1711137;82;20974;-83
2022/08/29 06:57:58;;;;;;;21.27;14.85;;;;;;;17.86;94.92;96839.13;1710340;81;21338;-83
2022/08/29 07:00:23;;;;;;;16.05;14.38;;;;;;;17.85;96.40;96848.83;1731369;81;20991;-83
2022/08/29 07:02:50;;;;;;;17.70;14.18;;;;;;;17.95;96.74;96847.84;1736997;81;20987;-83
2022/08/29 07:05:16;;;;;;;19.85;14.73;;;;;;;17.95;95.85;96853.61;1707934;82;21086;-83
2022/08/29 07:07:42;;;;;;;16.12;14.00;;;;;;;17.93;95.69;96856.97;1743213;81;21039;-83
2022/08/29 07:10:08;;;;;;;19.67;15.00;;;;;;;17.95;95.83;96854.42;1740911;81;21034;-83
2022/08/29 07:12:34;;;;;;;15.93;12.95;;;;;;;18.06;95.71;96852.91;1739276;81;20986;-83
2022/08/29 07:15:00;;;;;;;16.12;13.58;;;;;;;18.08;94.86;96856.63;1733353;81;21316;-83
2022/08/29 07:17:28;;;;;;;16.45;13.32;;;;;;;18.06;95.02;96854.70;1729480;81;20991;-82
2022/08/29 07:19:53;;;;;;;16.80;13.72;;;;;;;18.06;94.50;96859.48;1742122;81;21435;-83
2022/08/29 07:22:20;;;;;;;15.15;13.20;;;;;;;18.08;95.30;96864.02;1740534;81;20971;-82
2022/08/29 07:24:46;;;;;;;16.02;12.80;;;;;;;18.13;95.10;96862.84;1732482;81;21018;-83
2022/08/29 07:27:12;;;;;;;17.15;13.95;;;;;;;18.15;94.09;96859.48;1731676;81;21469;-83
2022/08/29 07:29:38;;;;;;;15.95;13.20;;;;;;;18.15;94.70;96859.48;1738604;81;21038;-83
2022/08/29 07:32:04;;;;;;;18.77;14.53;;;;;;;18.24;94.71;96863.95;1741009;81;20963;-83
2022/08/29 07:34:30;;;;;;;17.40;15.20;;;;;;;18.33;94.71;96860.00;1737342;81;21017;-83
2022/08/29 07:36:55;;;;;;;20.68;15.45;;;;;;;18.38;94.78;96860.14;1721724;81;21006;-83
2022/08/29 07:39:21;;;;;;;17.27;14.40;;;;;;;18.48;94.79;96859.64;1729200;81;21004;-83
2022/08/29 07:41:47;;;;;;;18.92;13.65;;;;;;;18.57;93.92;96867.03;1746108;81;20996;-83
2022/08/29 07:44:13;;;;;;;19.50;15.15;;;;;;;18.58;92.72;96865.20;1743083;81;20975;-83
2022/08/29 07:46:40;;;;;;;18.67;15.93;;;;;;;18.57;93.13;96865.72;1734796;81;21373;-85
2022/08/29 07:49:06;;;;;;;18.82;16.20;;;;;;;18.60;93.35;96866.59;1707581;82;21032;-85
2022/08/29 07:51:32;;;;;;;19.70;16.15;;;;;;;18.65;92.69;96873.84;1714292;82;21030;-85
2022/08/29 07:53:58;;;;;;;16.73;15.03;;;;;;;18.67;92.25;96877.57;1715827;82;20951;-84
2022/08/29 07:56:30;;;;;;;17.98;15.05;;;;;;;18.70;93.26;96871.34;1678803;83;21008;-85
2022/08/29 07:58:56;;;;;;;20.27;16.15;;;;;;;18.72;93.25;96880.36;1715453;82;20937;-85
2022/08/29 08:01:22;;;;;;;20.65;15.80;;;;;;;18.71;92.42;96883.99;1716467;82;21419;-85
2022/08/29 08:03:49;;;;;;;18.00;14.93;;;;;;;18.71;92.40;96882.67;1715373;82;20984;-86
2022/08/29 08:06:14;;;;;;;18.17;15.32;;;;;;;18.67;91.91;96877.57;1704294;82;20975;-85
2022/08/29 08:08:40;;;;;;;18.32;15.93;;;;;;;18.68;92.63;96884.44;1703011;82;21373;-85
2022/08/29 08:11:08;;;;;;;21.37;16.95;;;;;;;18.70;93.07;96881.07;1710547;82;20984;-84
2022/08/29 08:13:34;;;;;;;20.20;16.93;;;;;;;18.70;92.15;96884.50;1715767;82;21331;-85
2022/08/29 08:16:07;;;;;;;21.87;16.97;;;;;;;18.73;91.80;96884.09;1712117;82;20999;-85
2022/08/29 08:18:35;;;;;;;19.85;15.95;;;;;;;18.74;91.46;96890.16;1708916;82;21032;-85
2022/08/29 08:21:01;;;;;;;21.30;16.67;;;;;;;18.76;91.74;96890.22;1714637;82;21019;-84
2022/08/29 08:23:26;;;;;;;22.50;16.95;;;;;;;18.82;91.74;96888.52;1716359;82;22052;-85
2022/08/29 08:25:52;;;;;;;17.73;15.83;;;;;;;18.78;90.89;96890.00;1721505;82;20944;-85
2022/08/29 08:28:18;;;;;;;18.10;16.20;;;;;;;18.74;91.10;96892.28;1702436;82;20946;-84
2022/08/29 08:30:44;;;;;;;18.20;16.30;;;;;;;18.72;91.12;96891.70;1716842;82;21352;-86
2022/08/29 08:33:10;;;;;;;22.60;16.40;;;;;;;18.71;90.87;96894.04;1719466;82;21375;-85
2022/08/29 08:35:37;;;;;;;20.80;18.42;;;;;;;18.74;90.76;96894.11;1706881;81;20990;-85
2022/08/29 08:38:04;;;;;;;19.67;16.25;;;;;;;18.69;91.07;96896.06;1723417;82;21024;-85
2022/08/29 08:40:30;;;;;;;18.92;16.10;;;;;;;18.68;91.47;96899.72;1720044;82;20987;-83
2022/08/29 08:43:00;;;;;;;19.10;15.45;;;;;;;18.64;91.06;96904.33;1720596;81;20997;-83
2022/08/29 08:45:39;;;;;;;21.23;16.02;;;;;;;18.59;91.15;96905.77;1722117;81;21444;-83
2022/08/29 08:48:09;;;;;;;19.02;15.60;;;;;;;18.62;90.79;96900.58;1724716;80;21047;-84
2022/08/29 08:50:52;;;;;;;16.30;14.60;;;;;;;18.57;91.55;96907.83;1663143;85;21076;-83
2022/08/29 08:53:31;;;;;;;19.55;16.10;;;;;;;18.61;91.35;96902.92;1694831;83;21015;-84
2022/08/29 08:55:58;;;;;;;19.48;15.48;;;;;;;18.70;91.57;96905.56;1705485;82;21181;-84
2022/08/29 08:58:50;;;;;;;17.50;14.53;;;;;;;18.80;91.18;96905.06;1719530;82;20988;-83
2022/08/29 09:01:32;;;;;;;;;;;;;;;18.85;90.31;96900.73;1666127;83;21004;-84
2022/08/29 09:04:19;;;;;;;17.17;13.90;;;;;;;18.93;90.30;96904.10;1686204;83;20132;-84
2022/08/29 09:07:18;;;;;;;18.32;15.75;;;;;;;18.99;90.41;96906.64;1690542;83;21341;-83
2022/08/29 09:10:01;;;;;;;21.27;16.60;;;;;;;19.01;89.78;96909.05;1701051;83;20946;-84
2022/08/29 09:12:48;;;;;;;17.92;15.90;;;;;;;19.03;89.55;96917.02;1693774;83;21350;-82
2022/08/29 09:15:22;;;;;;;20.85;17.57;;;;;;;19.01;89.56;96915.13;1700839;83;21378;-85
2022/08/29 09:17:59;;;;;;;18.00;16.07;;;;;;;18.94;88.90;96910.98;1699779;83;21035;-84
2022/08/29 09:20:29;;;;;;;21.82;17.73;;;;;;;18.89;89.32;96905.87;1721908;83;21035;-83
2022/08/29 09:23:14;;;;;;;19.05;15.70;;;;;;;18.94;89.12;96909.66;1722472;82;21008;-83
2022/08/29 09:25:40;;;;;;;20.82;15.90;;;;;;;19.08;89.12;96909.79;1692555;83;21438;-83
2022/08/29 09:28:07;;;;;;;19.87;17.30;;;;;;;19.26;88.23;96912.89;1722687;83;21033;-82
2022/08/29 09:30:35;;;;;;;18.85;14.58;;;;;;;19.38;88.78;96907.97;1706041;83;21670;-83
2022/08/29 09:33:10;;;;;;;16.87;14.87;;;;;;;19.51;88.06;96906.95;1717832;83;21019;-82
2022/08/29 09:35:41;;;;;;;16.00;14.30;;;;;;;19.57;89.21;96901.34;1723073;82;20986;-83
2022/08/29 09:38:23;;;;;;;16.32;14.20;;;;;;;19.59;89.03;96908.50;1722710;83;20925;-83
2022/08/29 09:40:54;;;;;;;15.20;13.30;;;;;;;19.57;87.85;96911.88;1722041;83;21386;-84
2022/08/29 09:43:28;;;;;;;19.50;15.08;;;;;;;19.48;87.39;96907.41;1722285;83;21111;-84
2022/08/29 09:46:19;;;;;;;16.75;14.73;;;;;;;19.46;86.65;96908.95;1721989;83;20968;-85
2022/08/29 09:48:50;;;;;;;24.77;15.90;;;;;;;19.38;85.58;96914.55;1728071;82;20988;-85
2022/08/29 09:51:24;;;;;;;18.12;14.87;;;;;;;19.25;86.20;96912.09;1729787;83;21042;-84
2022/08/29 09:54:12;;;;;;;23.10;17.07;;;;;;;19.17;86.14;96918.97;1729677;81;20963;-83
2022/08/29 09:56:48;;;;;;;19.75;16.05;;;;;;;19.05;85.56;96917.62;1729455;81;21007;-84
2022/08/29 09:59:32;;;;;;;16.85;14.90;;;;;;;18.99;85.60;96917.17;1732998;81;20978;-83
2022/08/29 10:02:26;;;;;;;19.30;15.18;;;;;;;19.01;84.53;96915.63;1698773;82;20995;-83
2022/08/29 10:05:00;;;;;;;19.57;16.60;;;;;;;19.06;85.01;96915.28;1729551;82;20948;-83
2022/08/29 10:07:35;;;;;;;19.37;16.10;;;;;;;19.26;84.47;96924.23;1725324;81;20947;-83
2022/08/29 10:10:21;;;;;;;18.07;15.32;;;;;;;19.46;84.45;96915.54;1728947;81;20980;-84
2022/08/29 10:13:14;;;;;;;16.35;14.40;;;;;;;19.57;85.45;96919.27;1731204;81;20983;-84
2022/08/29 10:16:18;;;;;;;17.32;14.78;;;;;;;19.63;86.85;96914.41;1728425;81;20991;-84
2022/08/29 10:18:49;;;;;;;19.27;14.20;;;;;;;19.68;86.40;96915.05;1729407;82;21461;-84
2022/08/29 10:21:38;;;;;;;19.80;15.10;;;;;;;19.65;85.34;96912.34;1727793;81;21011;-85
2022/08/29 10:24:27;;;;;;;18.50;14.68;;;;;;;19.67;84.68;96912.12;1725660;81;20991;-85
2022/08/29 10:27:34;;;;;;;21.42;17.30;;;;;;;19.72;85.43;96911.75;1728748;83;20996;-83
2022/08/29 10:30:16;;;;;;;18.50;16.40;;;;;;;19.68;83.87;96907.94;1726605;81;20987;-83
2022/08/29 10:32:56;;;;;;;20.25;16.25;;;;;;;19.68;85.76;96911.09;1718871;82;21011;-83
2022/08/29 10:35:29;;;;;;;17.35;14.78;;;;;;;19.64;83.57;96909.42;1727687;81;21468;-85
2022/08/29 10:38:22;;;;;;;18.73;14.70;;;;;;;19.66;83.38;96910.00;1728229;81;21078;-84
2022/08/29 10:41:08;;;;;;;19.77;15.98;;;;;;;19.61;82.15;96904.61;1730092;83;21343;-85
2022/08/29 10:44:05;;;;;;;19.27;16.00;;;;;;;19.70;83.01;96909.05;1723818;81;21023;-85
2022/08/29 10:47:02;;;;;;;17.95;16.05;;;;;;;19.83;82.36;96912.78;1708331;81;21479;-85
2022/08/29 10:49:41;;;;;;;17.75;15.93;;;;;;;19.97;81.46;96908.09;1733092;82;20997;-84
2022/08/29 10:52:30;;;;;;;18.73;14.23;;;;;;;20.05;83.28;96908.58;1730359;81;21358;-85
2022/08/29 10:55:21;;;;;;;14.33;12.37;;;;;;;20.11;82.04;96906.85;1725935;81;21029;-85
2022/08/29 10:58:04;;;;;;;13.58;11.73;;;;;;;20.21;80.65;96898.37;1702043;82;21108;-85
2022/08/29 11:00:53;;;;;;;14.43;12.00;;;;;;;20.32;81.28;96895.71;1701261;83;21546;-85
2022/08/29 11:03:38;;;;;;;15.85;12.90;;;;;;;20.55;82.69;96894.13;1710222;82;21027;-86
2022/08/29 11:06:21;;;;;;;16.85;12.95;;;;;;;20.66;80.85;96895.44;1729955;83;20992;-85
2022/08/29 11:08:55;;;;;;;13.72;12.33;;;;;;;20.73;81.17;96891.34;1716444;82;20990;-86
2022/08/29 11:11:21;;;;;;;16.40;13.68;;;;;;;20.65;79.32;96886.41;1715834;81;21095;-85
2022/08/29 11:13:51;;;;;;;15.55;13.90;;;;;;;20.60;79.30;96893.71;1729408;81;21058;-85
2022/08/29 11:16:32;;;;;;;15.10;12.65;;;;;;;20.59;79.38;96889.98;1729870;81;20979;-86
2022/08/29 11:19:20;;;;;;;12.60;11.30;;;;;;;20.72;79.00;96885.77;1714608;81;21043;-85
2022/08/29 11:22:04;;;;;;;13.68;11.93;;;;;;;20.82;77.45;96888.59;1728406;81;21094;-85
2022/08/29 11:24:32;;;;;;;12.85;11.00;;;;;;;20.74;76.46;96878.94;1728336;81;21433;-85
2022/08/29 11:27:32;;;;;;;13.13;11.83;;;;;;;20.64;76.67;96883.48;1728064;81;20963;-86
2022/08/29 11:30:13;;;;;;;13.72;11.93;;;;;;;20.60;75.87;96887.62;1724154;81;21026;-86
2022/08/29 11:33:19;;;;;;;14.73;13.00;;;;;;;20.68;75.84;96885.96;1730284;81;20956;-85
2022/08/29 11:36:20;;;;;;;11.25;10.05;;;;;;;20.70;75.92;96890.48;1727035;81;20980;-86